sensor_id;sensor_type;location;lat;lon;timestamp;pressure;altitude;pressure_sealevel;temperature;humidity
20105;BME280;10212;42.714;23.310;2023-02-26T00:07:04;93987.00;;;12.69;48.95
20105;BME280;10212;42.714;23.310;2023-02-26T00:27:17;93970.66;;;13.07;45.19
20105;BME280;10212;42.714;23.310;2023-02-26T00:58:33;93958.19;;;13.14;44.16
20105;BME280;10212;42.714;23.310;2023-02-26T01:08:42;93947.13;;;13.07;45.22
20105;BME280;10212;42.714;23.310;2023-02-26T01:18:48;93929.22;;;12.98;43.68
20105;BME280;10212;42.714;23.310;2023-02-26T01:28:50;93917.78;;;13.05;43.28
20105;BME280;10212;42.714;23.310;2023-02-26T01:38:58;93878.50;;;12.99;43.19
20105;BME280;10212;42.714;23.310;2023-02-26T01:49:02;93866.84;;;12.85;43.04
20105;BME280;10212;42.714;23.310;2023-02-26T01:59:04;93880.06;;;12.73;43.54
20105;BME280;10212;42.714;23.310;2023-02-26T02:09:06;93865.31;;;12.89;42.17
20105;BME280;10212;42.714;23.310;2023-02-26T02:29:58;93857.56;;;12.99;41.28
20105;BME280;10212;42.714;23.310;2023-02-26T02:50:21;93883.94;;;12.93;41.43
20105;BME280;10212;42.714;23.310;2023-02-26T03:00:26;93897.56;;;12.95;40.31
20105;BME280;10212;42.714;23.310;2023-02-26T03:10:27;93908.53;;;12.97;40.64
20105;BME280;10212;42.714;23.310;2023-02-26T03:20:35;93869.00;;;12.93;40.81
20105;BME280;10212;42.714;23.310;2023-02-26T03:41:02;93890.94;;;12.87;40.87
20105;BME280;10212;42.714;23.310;2023-02-26T03:51:09;93887.47;;;12.81;40.79
20105;BME280;10212;42.714;23.310;2023-02-26T04:01:25;93876.63;;;12.95;41.22
20105;BME280;10212;42.714;23.310;2023-02-26T04:11:28;93874.03;;;12.72;42.39
20105;BME280;10212;42.714;23.310;2023-02-26T04:21:28;93852.03;;;12.68;43.86
20105;BME280;10212;42.714;23.310;2023-02-26T04:31:29;93854.19;;;12.49;44.69
20105;BME280;10212;42.714;23.310;2023-02-26T04:41:29;93831.66;;;12.42;43.25
20105;BME280;10212;42.714;23.310;2023-02-26T04:51:30;93818.56;;;12.42;42.66
20105;BME280;10212;42.714;23.310;2023-02-26T05:01:30;93801.50;;;12.35;43.26
20105;BME280;10212;42.714;23.310;2023-02-26T05:11:31;93811.44;;;12.33;42.76
20105;BME280;10212;42.714;23.310;2023-02-26T05:21:32;93790.16;;;12.51;40.14
20105;BME280;10212;42.714;23.310;2023-02-26T05:31:32;93787.09;;;12.87;38.50
20105;BME280;10212;42.714;23.310;2023-02-26T05:41:32;93790.50;;;12.93;38.98
20105;BME280;10212;42.714;23.310;2023-02-26T05:51:33;93808.09;;;12.98;38.56
20105;BME280;10212;42.714;23.310;2023-02-26T06:01:33;93791.50;;;13.20;37.78
20105;BME280;10212;42.714;23.310;2023-02-26T06:11:36;93801.84;;;13.37;36.97
20105;BME280;10212;42.714;23.310;2023-02-26T06:21:38;93824.59;;;13.74;37.03
20105;BME280;10212;42.714;23.310;2023-02-26T06:31:39;93791.72;;;14.05;35.26
20105;BME280;10212;42.714;23.310;2023-02-26T06:41:39;93811.41;;;14.18;35.51
20105;BME280;10212;42.714;23.310;2023-02-26T06:51:39;93805.41;;;14.28;35.25
20105;BME280;10212;42.714;23.310;2023-02-26T07:01:40;93805.97;;;14.35;34.53
20105;BME280;10212;42.714;23.310;2023-02-26T07:11:41;93796.06;;;14.63;32.75
20105;BME280;10212;42.714;23.310;2023-02-26T07:21:41;93839.16;;;14.83;32.46
20105;BME280;10212;42.714;23.310;2023-02-26T07:31:42;93798.22;;;15.08;32.25
20105;BME280;10212;42.714;23.310;2023-02-26T07:41:42;93805.28;;;15.18;33.06
20105;BME280;10212;42.714;23.310;2023-02-26T07:51:42;93795.59;;;15.18;32.81
20105;BME280;10212;42.714;23.310;2023-02-26T08:01:45;93805.28;;;15.39;31.86
20105;BME280;10212;42.714;23.310;2023-02-26T08:11:45;93842.78;;;15.71;31.24
20105;BME280;10212;42.714;23.310;2023-02-26T08:21:46;93824.84;;;16.09;31.28
20105;BME280;10212;42.714;23.310;2023-02-26T08:31:47;93830.56;;;16.32;30.99
20105;BME280;10212;42.714;23.310;2023-02-26T08:41:47;93841.00;;;16.48;30.66
20105;BME280;10212;42.714;23.310;2023-02-26T08:51:48;93825.84;;;16.74;30.61
20105;BME280;10212;42.714;23.310;2023-02-26T09:01:49;93841.16;;;17.13;29.83
20105;BME280;10212;42.714;23.310;2023-02-26T09:11:50;93836.38;;;16.74;29.54
20105;BME280;10212;42.714;23.310;2023-02-26T09:21:50;93828.28;;;17.41;29.02
20105;BME280;10212;42.714;23.310;2023-02-26T09:31:50;93823.56;;;17.92;27.97
20105;BME280;10212;42.714;23.310;2023-02-26T09:41:53;93836.13;;;18.49;26.67
20105;BME280;10212;42.714;23.310;2023-02-26T09:52:02;93831.88;;;18.53;26.77
20105;BME280;10212;42.714;23.310;2023-02-26T10:02:05;93841.31;;;18.11;26.95
20105;BME280;10212;42.714;23.310;2023-02-26T10:12:24;93837.38;;;18.08;27.54
20105;BME280;10212;42.714;23.310;2023-02-26T10:22:27;93822.91;;;17.81;28.74
20105;BME280;10212;42.714;23.310;2023-02-26T10:32:52;93807.63;;;17.53;28.82
20105;BME280;10212;42.714;23.310;2023-02-26T10:43:18;93788.69;;;18.00;29.14
20105;BME280;10212;42.714;23.310;2023-02-26T10:53:21;93796.31;;;17.77;29.18
20105;BME280;10212;42.714;23.310;2023-02-26T11:03:38;93774.53;;;17.91;29.77
20105;BME280;10212;42.714;23.310;2023-02-26T11:13:40;93747.88;;;18.17;29.38
20105;BME280;10212;42.714;23.310;2023-02-26T11:23:42;93773.84;;;18.04;28.84
20105;BME280;10212;42.714;23.310;2023-02-26T11:33:49;93779.91;;;18.29;29.05
20105;BME280;10212;42.714;23.310;2023-02-26T11:44:02;93789.28;;;17.92;30.34
20105;BME280;10212;42.714;23.310;2023-02-26T11:54:19;93816.50;;;17.63;30.87
20105;BME280;10212;42.714;23.310;2023-02-26T12:04:24;93862.00;;;17.44;31.35
20105;BME280;10212;42.714;23.310;2023-02-26T12:35:27;93891.78;;;16.99;34.23
20105;BME280;10212;42.714;23.310;2023-02-26T12:45:45;93886.50;;;16.99;35.05
20105;BME280;10212;42.714;23.310;2023-02-26T12:55:55;93895.84;;;17.26;34.59
20105;BME280;10212;42.714;23.310;2023-02-26T13:06:17;93897.72;;;17.20;33.52
20105;BME280;10212;42.714;23.310;2023-02-26T13:27:00;93912.53;;;17.11;33.75
20105;BME280;10212;42.714;23.310;2023-02-26T13:37:04;93892.88;;;17.68;33.47
20105;BME280;10212;42.714;23.310;2023-02-26T13:57:46;93863.56;;;17.10;36.30
20105;BME280;10212;42.714;23.310;2023-02-26T14:07:52;93873.78;;;17.17;35.59
20105;BME280;10212;42.714;23.310;2023-02-26T14:18:01;93893.34;;;17.00;35.98
20105;BME280;10212;42.714;23.310;2023-02-26T14:38:30;93909.75;;;16.10;38.13
20105;BME280;10212;42.714;23.310;2023-02-26T14:48:36;93899.31;;;15.58;40.25
20105;BME280;10212;42.714;23.310;2023-02-26T15:09:28;93929.50;;;15.18;41.35
20105;BME280;10212;42.714;23.310;2023-02-26T15:29:48;93941.78;;;14.97;43.13
20105;BME280;10212;42.714;23.310;2023-02-26T15:39:53;93965.75;;;14.57;44.84
20105;BME280;10212;42.714;23.310;2023-02-26T15:49:54;93992.63;;;14.27;46.00
20105;BME280;10212;42.714;23.310;2023-02-26T16:00:07;94003.34;;;13.87;48.25
20105;BME280;10212;42.714;23.310;2023-02-26T16:10:39;94007.84;;;13.59;49.61
20105;BME280;10212;42.714;23.310;2023-02-26T16:20:41;94021.59;;;13.49;49.99
20105;BME280;10212;42.714;23.310;2023-02-26T16:30:46;94007.47;;;13.50;45.97
20105;BME280;10212;42.714;23.310;2023-02-26T16:40:58;94008.47;;;13.71;46.37
20105;BME280;10212;42.714;23.310;2023-02-26T16:51:02;94048.13;;;13.53;48.87
20105;BME280;10212;42.714;23.310;2023-02-26T17:01:08;94029.81;;;13.85;43.83
20105;BME280;10212;42.714;23.310;2023-02-26T17:11:27;94048.34;;;13.79;48.28
20105;BME280;10212;42.714;23.310;2023-02-26T17:21:32;94059.53;;;13.46;50.21
20105;BME280;10212;42.714;23.310;2023-02-26T17:31:33;94061.03;;;13.37;51.38
20105;BME280;10212;42.714;23.310;2023-02-26T17:41:33;94060.06;;;13.21;51.37
20105;BME280;10212;42.714;23.310;2023-02-26T17:51:34;94069.91;;;13.36;49.67
20105;BME280;10212;42.714;23.310;2023-02-26T18:01:35;94068.16;;;13.19;50.91
20105;BME280;10212;42.714;23.310;2023-02-26T18:11:35;94087.25;;;12.97;51.65
20105;BME280;10212;42.714;23.310;2023-02-26T18:21:36;94034.69;;;12.76;52.68
20105;BME280;10212;42.714;23.310;2023-02-26T18:31:36;94091.97;;;12.56;53.24
20105;BME280;10212;42.714;23.310;2023-02-26T18:41:37;94067.16;;;12.41;54.32
20105;BME280;10212;42.714;23.310;2023-02-26T18:51:37;94109.22;;;12.22;55.84
20105;BME280;10212;42.714;23.310;2023-02-26T19:01:38;94124.63;;;12.06;56.31
20105;BME280;10212;42.714;23.310;2023-02-26T19:11:38;94125.31;;;11.85;57.02
20105;BME280;10212;42.714;23.310;2023-02-26T19:21:39;94148.03;;;11.84;57.02
20105;BME280;10212;42.714;23.310;2023-02-26T19:31:40;94152.91;;;11.80;57.93
20105;BME280;10212;42.714;23.310;2023-02-26T19:41:41;94163.13;;;11.53;58.58
20105;BME280;10212;42.714;23.310;2023-02-26T19:51:42;94152.72;;;11.29;58.91
20105;BME280;10212;42.714;23.310;2023-02-26T20:01:42;94179.41;;;11.19;59.65
20105;BME280;10212;42.714;23.310;2023-02-26T20:11:46;94217.31;;;11.09;59.29
20105;BME280;10212;42.714;23.310;2023-02-26T20:21:46;94221.50;;;10.98;60.27
20105;BME280;10212;42.714;23.310;2023-02-26T20:31:48;94247.72;;;11.16;60.77
20105;BME280;10212;42.714;23.310;2023-02-26T20:41:49;94241.47;;;11.17;60.85
20105;BME280;10212;42.714;23.310;2023-02-26T20:51:49;94216.28;;;11.11;61.72
20105;BME280;10212;42.714;23.310;2023-02-26T21:01:50;94242.38;;;11.34;61.60
20105;BME280;10212;42.714;23.310;2023-02-26T21:11:52;94261.09;;;11.31;61.03
20105;BME280;10212;42.714;23.310;2023-02-26T21:21:53;94282.31;;;11.23;60.67
20105;BME280;10212;42.714;23.310;2023-02-26T21:31:53;94261.66;;;11.21;60.82
20105;BME280;10212;42.714;23.310;2023-02-26T21:41:56;94261.78;;;11.15;62.38
20105;BME280;10212;42.714;23.310;2023-02-26T21:51:59;94295.56;;;11.09;62.93
20105;BME280;10212;42.714;23.310;2023-02-26T22:02:00;94268.38;;;11.05;64.36
20105;BME280;10212;42.714;23.310;2023-02-26T22:12:01;94271.16;;;11.04;64.48
20105;BME280;10212;42.714;23.310;2023-02-26T22:22:02;94270.41;;;11.03;63.51
20105;BME280;10212;42.714;23.310;2023-02-26T22:32:03;94261.31;;;10.94;63.97
20105;BME280;10212;42.714;23.310;2023-02-26T22:42:03;94290.78;;;10.82;63.66
20105;BME280;10212;42.714;23.310;2023-02-26T22:52:03;94285.75;;;10.69;64.39
20105;BME280;10212;42.714;23.310;2023-02-26T23:02:09;94294.47;;;10.44;66.11
20105;BME280;10212;42.714;23.310;2023-02-26T23:12:10;94292.06;;;10.30;67.04
20105;BME280;10212;42.714;23.310;2023-02-26T23:22:10;94295.59;;;10.36;66.55
20105;BME280;10212;42.714;23.310;2023-02-26T23:32:13;94284.34;;;10.23;67.17
20105;BME280;10212;42.714;23.310;2023-02-26T23:42:14;94292.88;;;10.12;67.74
20105;BME280;10212;42.714;23.310;2023-02-26T23:52:14;94282.56;;;9.86;68.87
